Time;durP1;ratioP1;P1;durP2;ratioP2;P2;SDS_P1;SDS_P2;PMS_P1;PMS_P2;Temp;Humidity;BMP_temperature;BMP_pressure;BME280_temperature;BME280_humidity;BME280_pressure;Samples;Min_cycle;Max_cycle;Signal;HPM_P1;HPM_P2
2022/09/30 00:00:06;;;;;;;1.90;1.42;;;;;;;15.44;42.52;100558.56;5062454;28;20063;-60
2022/09/30 00:02:31;;;;;;;2.60;2.00;;;;;;;15.41;42.51;100557.03;5060598;28;20394;-59
2022/09/30 00:04:56;;;;;;;4.90;1.98;;;;;;;15.36;43.74;100554.00;5056428;28;20013;-59
2022/09/30 00:07:22;;;;;;;4.68;2.17;;;;;;;15.37;43.03;100561.09;5065858;28;20187;-59
2022/09/30 00:09:48;;;;;;;2.50;1.95;;;;;;;15.38;44.08;100561.94;5058201;28;20044;-59
2022/09/30 00:12:13;;;;;;;4.90;2.47;;;;;;;15.36;43.86;100567.50;5060192;28;20385;-59
2022/09/30 00:14:39;;;;;;;5.10;2.10;;;;;;;15.29;43.60;100562.94;5058967;28;20025;-59
2022/09/30 00:17:04;;;;;;;4.03;2.00;;;;;;;15.28;43.59;100564.78;5065631;28;20031;-59
2022/09/30 00:19:30;;;;;;;3.35;1.77;;;;;;;15.29;43.38;100566.50;5058016;28;20075;-59
2022/09/30 00:21:55;;;;;;;5.78;2.38;;;;;;;15.25;44.14;100564.28;5054577;28;20033;-59
2022/09/30 00:24:20;;;;;;;5.05;2.08;;;;;;;15.25;42.63;100557.03;5055318;28;20102;-59
2022/09/30 00:26:46;;;;;;;6.78;2.20;;;;;;;15.22;43.93;100568.16;5055236;28;20044;-59
2022/09/30 00:29:11;;;;;;;5.00;2.35;;;;;;;15.15;43.51;100556.34;5055382;28;20038;-59
2022/09/30 00:31:37;;;;;;;3.78;2.35;;;;;;;15.18;42.78;100565.97;5053969;28;20033;-61
2022/09/30 00:34:06;;;;;;;3.88;2.25;;;;;;;15.16;43.71;100574.19;5053937;28;20028;-59
2022/09/30 00:36:46;;;;;;;3.72;1.88;;;;;;;15.13;42.79;100572.69;5058421;28;20029;-60
2022/09/30 00:39:17;;;;;;;3.95;2.35;;;;;;;15.11;43.02;100576.56;5075994;28;20040;-59
2022/09/30 00:41:43;;;;;;;3.67;2.33;;;;;;;15.04;42.85;100570.13;5076250;28;20024;-59
2022/09/30 00:44:43;;;;;;;5.70;2.70;;;;;;;15.09;43.49;100578.56;5075889;28;20020;-59
2022/09/30 00:47:24;;;;;;;4.68;2.50;;;;;;;15.06;42.76;100584.31;5075995;28;20035;-59
2022/09/30 00:49:50;;;;;;;8.07;2.50;;;;;;;15.03;43.70;100595.41;5076048;28;20476;-59
2022/09/30 00:52:16;;;;;;;3.33;1.75;;;;;;;15.01;42.87;100592.03;5074778;28;20036;-59
2022/09/30 00:54:41;;;;;;;4.45;2.17;;;;;;;14.97;43.79;100593.38;5074492;28;20036;-59
2022/09/30 00:57:07;;;;;;;2.35;1.58;;;;;;;14.92;42.73;100593.00;5075766;28;20033;-60
2022/09/30 00:59:45;;;;;;;3.10;1.75;;;;;;;14.89;42.54;100577.16;5074604;28;20397;-59
2022/09/30 01:02:13;;;;;;;6.47;2.28;;;;;;;14.74;42.55;100563.44;5075963;28;20024;-60
2022/09/30 01:04:38;;;;;;;4.78;2.13;;;;;;;14.80;42.76;100578.13;5075063;28;20020;-59
2022/09/30 01:07:06;;;;;;;5.10;2.28;;;;;;;14.82;44.13;100589.63;5075449;28;20024;-60
2022/09/30 01:09:33;;;;;;;3.85;2.53;;;;;;;14.81;43.04;100585.22;5074248;28;20107;-59
2022/09/30 01:11:59;;;;;;;4.00;2.42;;;;;;;14.79;42.89;100581.84;5074202;28;20071;-60
2022/09/30 01:14:26;;;;;;;7.18;2.50;;;;;;;14.75;42.98;100578.63;5074420;28;20428;-59
2022/09/30 01:17:10;;;;;;;4.10;2.33;;;;;;;14.75;43.05;100581.31;5074304;28;20074;-60
2022/09/30 01:20:07;;;;;;;3.15;2.15;;;;;;;14.72;43.20;100576.25;5075453;28;20491;-59
2022/09/30 01:22:43;;;;;;;3.05;1.85;;;;;;;14.65;44.16;100579.75;5003567;28;20073;-59
2022/09/30 01:25:15;;;;;;;8.40;2.20;;;;;;;14.67;44.26;100583.13;5075053;28;20017;-60
2022/09/30 01:28:08;;;;;;;3.65;2.35;;;;;;;14.66;43.76;100586.81;5073836;28;20028;-59
2022/09/30 01:30:58;;;;;;;4.70;2.85;;;;;;;14.62;42.94;100590.88;5074960;28;20036;-59
2022/09/30 01:33:41;;;;;;;3.90;2.35;;;;;;;14.60;43.28;100588.31;5075387;28;20465;-59
2022/09/30 01:36:17;;;;;;;2.83;2.03;;;;;;;14.56;42.80;100585.13;5073602;28;20119;-59
2022/09/30 01:38:54;;;;;;;2.35;2.15;;;;;;;14.52;44.19;100581.03;5074730;28;20051;-59
2022/09/30 01:42:01;;;;;;;3.70;2.10;;;;;;;14.55;44.13;100588.81;5075133;28;20466;-59
2022/09/30 01:44:35;;;;;;;2.67;1.80;;;;;;;14.54;43.20;100595.19;5057100;28;20036;-59
2022/09/30 01:47:31;;;;;;;3.42;2.13;;;;;;;14.53;43.14;100596.22;5073678;28;20028;-61
2022/09/30 01:50:21;;;;;;;2.08;1.88;;;;;;;14.50;44.44;100593.84;5073436;28;20108;-59
2022/09/30 01:53:10;;;;;;;4.43;2.28;;;;;;;14.51;43.50;100589.28;5061297;28;20041;-60
2022/09/30 01:55:49;;;;;;;3.50;2.03;;;;;;;14.52;43.90;100599.06;5073109;28;20504;-59
2022/09/30 01:58:27;;;;;;;4.53;2.55;;;;;;;14.50;44.32;100593.84;5073410;28;20029;-59
2022/09/30 02:00:56;;;;;;;4.03;2.45;;;;;;;14.51;43.38;100595.53;5073520;28;20119;-59
2022/09/30 02:03:34;;;;;;;3.55;2.00;;;;;;;14.48;44.22;100595.84;5074365;28;20100;-59
2022/09/30 02:06:08;;;;;;;5.90;2.28;;;;;;;14.50;43.19;100593.84;5073050;28;20416;-59
2022/09/30 02:08:48;;;;;;;3.90;2.17;;;;;;;14.50;43.48;100593.00;5072981;28;20016;-59
2022/09/30 02:11:17;;;;;;;3.10;2.03;;;;;;;14.50;43.16;100588.44;5074572;28;20425;-59
2022/09/30 02:13:51;;;;;;;6.97;2.30;;;;;;;14.45;43.96;100580.00;5056245;28;20019;-59
2022/09/30 02:16:23;;;;;;;2.58;1.77;;;;;;;14.49;43.60;100580.50;5073866;28;20025;-59
2022/09/30 02:19:03;;;;;;;4.18;2.58;;;;;;;14.49;44.66;100581.34;5072805;28;20074;-59
2022/09/30 02:21:35;;;;;;;3.08;2.10;;;;;;;14.48;44.48;100579.69;5072970;28;20028;-59
2022/09/30 02:24:05;;;;;;;3.28;2.15;;;;;;;14.47;44.82;100583.38;5073010;28;20024;-59
2022/09/30 02:26:36;;;;;;;4.57;2.38;;;;;;;14.45;44.47;100585.41;5073890;28;20510;-60
2022/09/30 02:29:28;;;;;;;2.88;2.53;;;;;;;14.46;44.54;100587.06;5072792;28;20020;-62
2022/09/30 02:32:00;;;;;;;3.23;2.27;;;;;;;14.47;44.18;100590.59;5065689;28;20032;-59
2022/09/30 02:34:34;;;;;;;2.88;2.38;;;;;;;14.41;43.82;100583.16;5073061;28;20332;-59
2022/09/30 02:37:10;;;;;;;3.65;2.25;;;;;;;14.35;43.55;100570.34;5072918;28;20376;-59
2022/09/30 02:40:04;;;;;;;10.15;2.47;;;;;;;14.42;43.59;100596.50;5072955;28;20028;-59
2022/09/30 02:42:30;;;;;;;4.97;2.88;;;;;;;14.33;44.42;100578.56;5073809;28;20051;-59
2022/09/30 02:45:09;;;;;;;6.22;3.45;;;;;;;14.40;44.93;100593.13;5074001;28;20537;-59
2022/09/30 02:48:02;;;;;;;5.40;2.58;;;;;;;14.45;44.19;100589.94;5072895;28;20115;-59
2022/09/30 02:50:35;;;;;;;5.55;3.33;;;;;;;14.47;44.94;100604.09;5074167;28;20465;-60
2022/09/30 02:53:42;;;;;;;4.88;3.50;;;;;;;14.47;43.62;100596.84;5073014;28;20028;-59
2022/09/30 02:56:34;;;;;;;6.18;3.13;;;;;;;14.46;43.66;100600.53;5059326;28;20055;-59
2022/09/30 02:58:59;;;;;;;5.47;2.88;;;;;;;14.44;44.73;100599.84;5066817;28;20040;-59
2022/09/30 03:01:25;;;;;;;6.10;2.83;;;;;;;14.44;44.76;100599.00;5056136;28;20374;-60
2022/09/30 03:03:58;;;;;;;6.30;3.28;;;;;;;14.45;44.59;100606.09;5073698;28;20021;-59
2022/09/30 03:06:24;;;;;;;8.48;3.33;;;;;;;14.44;44.71;100594.47;5072780;28;20031;-60
2022/09/30 03:08:51;;;;;;;3.40;3.03;;;;;;;14.45;43.65;100601.56;5072795;28;20028;-59
2022/09/30 03:11:20;;;;;;;6.32;3.83;;;;;;;14.47;45.15;100604.94;5073741;28;20104;-60
2022/09/30 03:13:58;;;;;;;7.57;3.95;;;;;;;14.49;44.69;100597.53;5072498;28;20109;-59
2022/09/30 03:17:07;;;;;;;6.65;3.33;;;;;;;14.50;43.61;100598.38;5073746;28;20028;-60
2022/09/30 03:20:03;;;;;;;7.75;4.45;;;;;;;14.52;44.44;100599.06;5072497;28;20069;-59
2022/09/30 03:22:53;;;;;;;9.95;4.30;;;;;;;14.52;44.46;100607.13;5073525;28;20063;-59
2022/09/30 03:25:24;;;;;;;5.50;3.70;;;;;;;14.53;44.98;100607.00;5073425;28;20115;-59
2022/09/30 03:28:09;;;;;;;7.65;3.92;;;;;;;14.55;45.35;100610.38;5073930;28;20024;-59
2022/09/30 03:30:48;;;;;;;10.52;4.32;;;;;;;14.58;45.44;100614.59;5076253;28;20035;-59
2022/09/30 03:33:26;;;;;;;8.60;4.60;;;;;;;14.64;43.96;100626.59;5076326;28;20028;-59
2022/09/30 03:36:08;;;;;;;9.45;4.50;;;;;;;14.64;44.35;100610.41;5075989;28;20025;-59
2022/09/30 03:38:59;;;;;;;11.73;5.07;;;;;;;14.73;44.23;100617.53;5076076;28;20070;-59
2022/09/30 03:41:39;;;;;;;8.45;5.63;;;;;;;14.76;44.17;100620.78;5077291;28;20550;-59
2022/09/30 03:44:10;;;;;;;9.90;4.22;;;;;;;14.81;45.73;100623.81;5076913;28;20036;-59
2022/09/30 03:46:39;;;;;;;7.47;4.90;;;;;;;14.77;45.27;100614.34;5077078;28;20078;-59
2022/09/30 03:49:08;;;;;;;14.23;4.75;;;;;;;14.87;44.73;100633.97;5077134;28;20056;-59
2022/09/30 03:51:36;;;;;;;11.95;5.05;;;;;;;14.95;44.54;100633.16;5075729;28;20024;-59
2022/09/30 03:54:05;;;;;;;9.15;4.43;;;;;;;14.98;44.63;100633.69;5076796;28;20020;-59
2022/09/30 03:56:32;;;;;;;11.10;4.65;;;;;;;15.00;44.79;100634.34;5075587;28;20068;-59
2022/09/30 03:58:57;;;;;;;13.90;4.32;;;;;;;15.04;45.01;100640.28;5076815;28;20055;-59
2022/09/30 04:01:23;;;;;;;7.30;3.95;;;;;;;15.02;44.79;100632.31;5076734;28;20028;-59
2022/09/30 04:03:52;;;;;;;8.13;3.80;;;;;;;15.12;45.84;100645.69;5076853;28;20021;-59
2022/09/30 04:06:23;;;;;;;5.55;3.67;;;;;;;15.15;45.32;100642.69;5076849;28;20037;-59
2022/09/30 04:08:49;;;;;;;7.65;3.55;;;;;;;15.18;45.92;100650.44;5076779;28;20056;-59
2022/09/30 04:11:15;;;;;;;9.10;4.22;;;;;;;15.20;46.01;100645.72;5077116;28;20490;-66
2022/09/30 04:13:40;;;;;;;6.65;3.90;;;;;;;15.22;45.95;100641.00;5076603;28;20063;-59
2022/09/30 04:16:06;;;;;;;8.95;3.90;;;;;;;15.22;44.73;100640.16;5076427;28;20032;-59
2022/09/30 04:18:35;;;;;;;8.02;4.47;;;;;;;15.22;44.35;100643.69;5076382;28;20054;-59
2022/09/30 04:21:04;;;;;;;15.25;4.40;;;;;;;15.20;44.74;100645.72;5075479;28;20024;-59
2022/09/30 04:23:29;;;;;;;7.43;3.60;;;;;;;15.20;44.46;100640.31;5075209;28;20021;-59
2022/09/30 04:25:55;;;;;;;10.30;3.63;;;;;;;15.15;44.97;100634.59;5076306;28;20378;-59
2022/09/30 04:28:22;;;;;;;6.55;3.83;;;;;;;15.14;45.89;100644.53;5076477;28;20021;-59
2022/09/30 04:30:47;;;;;;;15.55;4.53;;;;;;;15.12;44.44;100632.22;5076668;28;20033;-59
2022/09/30 04:33:12;;;;;;;7.57;3.92;;;;;;;15.10;44.86;100639.63;5076341;28;20032;-60
2022/09/30 04:35:38;;;;;;;7.72;4.00;;;;;;;15.09;44.49;100643.31;5076466;28;20074;-59
2022/09/30 04:38:06;;;;;;;6.35;4.10;;;;;;;15.07;46.27;100642.66;5074984;28;20056;-59
2022/09/30 04:40:34;;;;;;;6.70;3.85;;;;;;;15.08;45.42;100652.41;5075400;28;20028;-59
2022/09/30 04:42:59;;;;;;;7.13;4.20;;;;;;;15.08;46.24;100663.19;5076224;28;20032;-59
2022/09/30 04:45:25;;;;;;;9.93;4.22;;;;;;;15.07;44.77;100678.53;5076204;28;20115;-60
2022/09/30 04:47:51;;;;;;;7.85;4.53;;;;;;;15.07;45.34;100675.84;5076327;28;20025;-59
2022/09/30 04:50:16;;;;;;;6.40;4.47;;;;;;;15.10;46.14;100682.78;5075955;28;20024;-59
2022/09/30 04:52:42;;;;;;;13.52;5.30;;;;;;;15.13;45.83;100687.88;5076189;28;20043;-59
2022/09/30 04:55:08;;;;;;;8.38;4.82;;;;;;;15.13;45.95;100690.56;5075479;28;20051;-59
2022/09/30 04:57:34;;;;;;;7.53;3.90;;;;;;;15.19;45.88;100695.28;5058044;28;20438;-59
2022/09/30 04:59:59;;;;;;;7.85;4.15;;;;;;;15.22;45.96;100704.91;5074776;28;20048;-59
2022/09/30 05:02:25;;;;;;;7.40;4.30;;;;;;;15.24;45.46;100702.91;5076030;28;20382;-59
2022/09/30 05:04:50;;;;;;;8.05;4.25;;;;;;;15.23;45.01;100698.53;5075926;28;20107;-59
2022/09/30 05:07:16;;;;;;;5.57;3.63;;;;;;;15.22;46.33;100705.75;5075948;28;20024;-59
2022/09/30 05:09:41;;;;;;;9.45;3.72;;;;;;;15.21;44.79;100706.78;5075652;28;20054;-59
2022/09/30 05:12:07;;;;;;;5.22;3.53;;;;;;;15.22;44.79;100708.47;5075784;28;20036;-59
2022/09/30 05:14:33;;;;;;;8.75;4.28;;;;;;;15.19;44.66;100708.78;5075952;28;20071;-59
2022/09/30 05:16:58;;;;;;;8.57;3.80;;;;;;;15.18;46.01;100717.91;5075993;28;20035;-59
2022/09/30 05:19:24;;;;;;;8.75;3.42;;;;;;;15.16;45.41;100722.59;5075509;28;20382;-59
2022/09/30 05:21:51;;;;;;;8.70;4.53;;;;;;;15.12;45.01;100714.00;5075446;28;20039;-59
2022/09/30 05:24:17;;;;;;;8.70;3.63;;;;;;;15.16;46.11;100719.91;5075183;28;20202;-59
2022/09/30 05:26:42;;;;;;;8.23;3.70;;;;;;;15.14;46.48;100721.91;5075062;28;20122;-59
2022/09/30 05:29:08;;;;;;;8.07;3.38;;;;;;;15.14;44.98;100722.78;5075262;28;20031;-59
2022/09/30 05:31:34;;;;;;;7.30;3.90;;;;;;;15.14;44.68;100727.31;5075085;28;20500;-59
2022/09/30 05:34:00;;;;;;;10.13;3.88;;;;;;;15.15;44.87;100729.03;5075105;28;20016;-59
2022/09/30 05:36:25;;;;;;;7.75;4.05;;;;;;;15.15;45.09;100729.88;5075072;28;20053;-60
2022/09/30 05:38:51;;;;;;;7.65;3.95;;;;;;;15.16;45.93;100736.09;5074959;28;20024;-59
2022/09/30 05:41:18;;;;;;;9.82;3.75;;;;;;;15.19;46.29;100741.16;5074054;28;20095;-59
2022/09/30 05:43:45;;;;;;;7.18;4.00;;;;;;;15.20;46.62;100736.63;5073938;28;20065;-59
2022/09/30 05:46:10;;;;;;;7.75;4.10;;;;;;;15.21;45.04;100744.56;5073909;28;20039;-59
2022/09/30 05:48:36;;;;;;;7.63;4.15;;;;;;;15.10;45.47;100723.25;5075096;28;20024;-59
2022/09/30 05:51:01;;;;;;;7.57;3.67;;;;;;;15.20;45.68;100748.25;5073605;28;20435;-59
2022/09/30 05:53:28;;;;;;;5.18;3.30;;;;;;;15.20;46.50;100748.25;5075108;28;20033;-59
2022/09/30 05:55:53;;;;;;;7.75;4.30;;;;;;;15.13;45.52;100741.84;5074696;28;20168;-59
2022/09/30 05:58:20;;;;;;;8.38;4.50;;;;;;;15.19;45.86;100738.47;5073511;28;20479;-59
2022/09/30 06:00:46;;;;;;;9.82;4.93;;;;;;;15.25;46.28;100747.78;5070107;28;20036;-59
2022/09/30 06:03:12;;;;;;;6.95;3.67;;;;;;;15.31;45.80;100758.78;5036543;28;20024;-59
2022/09/30 06:05:39;;;;;;;8.50;4.35;;;;;;;15.36;45.98;100760.97;5054674;28;20039;-59
2022/09/30 06:08:06;;;;;;;5.07;3.40;;;;;;;15.44;45.83;100761.88;5053442;28;20167;-59
2022/09/30 06:10:31;;;;;;;9.38;3.90;;;;;;;15.52;45.67;100764.63;5054521;28;20029;-59
2022/09/30 06:12:58;;;;;;;9.10;3.85;;;;;;;15.59;44.90;100773.78;5053481;28;20027;-59
2022/09/30 06:15:24;;;;;;;8.90;4.03;;;;;;;15.67;44.54;100764.84;5053666;28;20021;-59
2022/09/30 06:17:52;;;;;;;7.90;3.88;;;;;;;15.77;46.10;100772.84;5054682;28;20490;-59
2022/09/30 06:20:18;;;;;;;11.38;4.60;;;;;;;15.86;44.43;100777.22;5036508;28;20056;-59
2022/09/30 06:22:43;;;;;;;13.15;4.78;;;;;;;15.98;44.67;100775.94;5054623;28;20434;-59
2022/09/30 06:25:09;;;;;;;8.27;4.22;;;;;;;16.08;44.39;100779.34;5052936;28;20033;-59
2022/09/30 06:27:37;;;;;;;13.65;4.55;;;;;;;16.23;44.98;100780.38;5054085;28;20040;-59
2022/09/30 06:30:03;;;;;;;10.13;4.65;;;;;;;16.31;45.05;100780.38;5054129;28;20033;-59
2022/09/30 06:32:29;;;;;;;17.33;5.47;;;;;;;16.43;45.42;100787.16;5054181;28;20031;-59
2022/09/30 06:34:55;;;;;;;7.65;4.32;;;;;;;16.52;45.29;100796.97;5054284;28;20501;-59
2022/09/30 06:37:24;;;;;;;12.55;4.60;;;;;;;16.65;44.21;100797.34;5054314;28;20444;-59
2022/09/30 06:39:49;;;;;;;13.27;4.43;;;;;;;16.76;44.71;100805.09;5053806;28;20485;-59
2022/09/30 06:42:15;;;;;;;10.23;4.80;;;;;;;16.88;44.34;100806.47;5054202;28;20028;-59
2022/09/30 06:44:41;;;;;;;9.63;4.72;;;;;;;17.02;44.70;100814.91;5053735;28;20031;-59
2022/09/30 06:47:07;;;;;;;7.85;4.43;;;;;;;17.13;45.38;100811.84;5053966;28;20037;-59
2022/09/30 06:49:33;;;;;;;13.30;4.65;;;;;;;17.13;44.78;100792.88;5053997;28;20037;-59
2022/09/30 06:51:59;;;;;;;8.25;4.00;;;;;;;17.28;45.32;100804.72;5053617;28;20128;-59
2022/09/30 06:54:26;;;;;;;12.70;4.78;;;;;;;17.35;44.53;100800.28;5053719;28;20167;-59
2022/09/30 06:56:52;;;;;;;15.13;5.07;;;;;;;17.44;44.89;100794.69;5053749;28;20029;-60
2022/09/30 06:59:18;;;;;;;10.18;4.53;;;;;;;17.58;45.16;100811.25;5054025;28;20029;-59
2022/09/30 07:01:43;;;;;;;9.40;4.47;;;;;;;17.71;44.62;100812.38;5054089;28;20048;-59
2022/09/30 07:04:12;;;;;;;10.02;4.07;;;;;;;17.86;45.05;100817.91;5054893;28;20036;-59
2022/09/30 07:06:38;;;;;;;8.82;5.10;;;;;;;17.94;44.24;100807.88;5057944;28;20048;-59
2022/09/30 07:09:05;;;;;;;11.35;4.20;;;;;;;18.13;44.73;100812.00;5057699;28;20033;-59
2022/09/30 07:11:30;;;;;;;17.65;4.97;;;;;;;18.27;43.53;100816.66;5057967;28;20025;-60
2022/09/30 07:13:56;;;;;;;9.65;4.68;;;;;;;18.41;43.83;100809.63;5057926;28;20025;-59
2022/09/30 07:16:24;;;;;;;8.80;4.78;;;;;;;18.49;43.27;100802.28;5057828;28;20067;-59
2022/09/30 07:18:50;;;;;;;8.10;4.47;;;;;;;18.61;43.65;100805.44;5056633;28;20462;-59
2022/09/30 07:21:16;;;;;;;10.43;4.97;;;;;;;18.76;43.93;100817.16;5061462;28;20021;-59
2022/09/30 07:23:46;;;;;;;8.13;4.60;;;;;;;18.91;43.08;100811.78;5059040;28;20032;-59
2022/09/30 07:26:15;;;;;;;6.28;4.53;;;;;;;19.01;43.28;100802.34;5050899;28;20029;-60
2022/09/30 07:28:40;;;;;;;9.43;4.70;;;;;;;19.18;43.60;100811.16;5058035;28;20025;-60
2022/09/30 07:31:08;;;;;;;12.98;4.40;;;;;;;19.28;43.37;100808.19;5052889;28;20390;-60
2022/09/30 07:33:34;;;;;;;9.60;4.65;;;;;;;19.39;43.08;100813.22;5037705;28;20022;-59
2022/09/30 07:36:00;;;;;;;15.15;5.35;;;;;;;19.52;43.22;100816.94;5037423;28;20029;-59
2022/09/30 07:38:28;;;;;;;13.48;5.55;;;;;;;19.67;43.20;100806.09;5036209;28;20092;-59
2022/09/30 07:40:57;;;;;;;10.00;4.82;;;;;;;19.77;42.77;100804.75;5037673;28;20029;-60
2022/09/30 07:43:23;;;;;;;12.07;5.85;;;;;;;19.86;43.04;100808.22;5036272;28;20025;-60
2022/09/30 07:45:50;;;;;;;16.40;6.75;;;;;;;20.02;42.82;100818.88;5035691;28;20044;-59
2022/09/30 07:51:00;;;;;;;13.35;7.63;;;;;;;20.44;42.77;100822.72;5050179;28;20036;-60
2022/09/30 07:53:25;;;;;;;14.40;6.13;;;;;;;20.60;42.31;100812.41;5057404;28;20029;-59
2022/09/30 07:55:51;;;;;;;11.40;5.40;;;;;;;20.82;42.59;100810.56;5061968;28;20047;-59
2022/09/30 07:58:17;;;;;;;11.75;6.35;;;;;;;21.03;42.05;100813.25;5076893;28;20052;-60
2022/09/30 08:00:42;;;;;;;11.15;6.40;;;;;;;21.29;41.81;100813.47;5076747;28;20029;-59
2022/09/30 08:03:08;;;;;;;12.73;6.90;;;;;;;21.53;42.53;100819.47;5076905;28;20025;-60
2022/09/30 08:05:40;;;;;;;9.57;5.88;;;;;;;21.79;42.09;100815.03;5076583;28;20040;-60
2022/09/30 08:08:06;;;;;;;16.35;6.40;;;;;;;21.98;41.74;100827.09;5075364;28;20032;-60
2022/09/30 08:10:35;;;;;;;16.45;6.53;;;;;;;22.10;40.89;100827.38;5075139;28;20035;-59
2022/09/30 08:13:01;;;;;;;17.02;6.57;;;;;;;22.22;41.14;100823.81;5058412;28;20020;-60
2022/09/30 08:15:26;;;;;;;13.60;7.00;;;;;;;22.37;41.32;100821.78;5075184;28;20027;-60
2022/09/30 08:17:51;;;;;;;12.48;5.80;;;;;;;22.51;40.22;100825.38;5076473;28;20079;-60
2022/09/30 08:20:17;;;;;;;15.93;5.82;;;;;;;22.67;40.26;100818.75;5076232;28;20032;-60
2022/09/30 08:22:42;;;;;;;13.60;5.68;;;;;;;22.86;39.99;100824.22;5076324;28;20035;-60
2022/09/30 08:25:08;;;;;;;12.30;6.18;;;;;;;22.99;40.69;100820.66;5076056;28;20389;-60
2022/09/30 08:27:33;;;;;;;12.43;5.80;;;;;;;23.11;40.77;100808.88;5076443;28;20127;-60
2022/09/30 08:29:58;;;;;;;11.27;6.00;;;;;;;23.30;39.88;100811.78;5074759;28;20052;-61
2022/09/30 08:32:24;;;;;;;9.88;5.45;;;;;;;23.43;40.37;100809.06;5076325;28;20035;-60
2022/09/30 08:34:49;;;;;;;8.60;5.50;;;;;;;23.55;39.67;100819.16;5076139;28;20393;-60
2022/09/30 08:37:14;;;;;;;12.73;5.88;;;;;;;23.72;39.30;100814.91;5075853;28;20393;-60
2022/09/30 08:39:42;;;;;;;13.23;6.28;;;;;;;23.91;40.04;100815.88;5075984;28;20393;-60
2022/09/30 08:42:22;;;;;;;10.63;5.75;;;;;;;24.09;38.77;100813.28;5075645;28;20028;-60
2022/09/30 08:44:48;;;;;;;13.23;5.97;;;;;;;24.25;38.80;100814.72;5074692;28;20485;-60
2022/09/30 08:47:41;;;;;;;8.98;5.95;;;;;;;24.34;39.10;100814.22;5074596;28;20032;-61
2022/09/30 08:50:35;;;;;;;10.25;6.18;;;;;;;24.45;39.34;100815.44;5075889;28;20028;-60
2022/09/30 08:53:06;;;;;;;16.55;5.72;;;;;;;24.52;38.68;100815.38;5074502;28;20033;-60
2022/09/30 08:55:39;;;;;;;9.07;5.80;;;;;;;24.66;38.56;100814.22;5074306;28;20048;-61
2022/09/30 08:58:05;;;;;;;10.95;5.38;;;;;;;24.78;38.66;100804.25;5075668;28;20444;-60
2022/09/30 09:00:31;;;;;;;11.90;5.05;;;;;;;24.93;38.07;100812.19;5075755;28;20035;-60
2022/09/30 09:02:58;;;;;;;10.40;6.13;;;;;;;25.05;38.31;100815.84;5075710;28;20477;-60
2022/09/30 09:05:38;;;;;;;9.70;5.55;;;;;;;25.22;38.55;100812.34;5075544;28;20437;-60
2022/09/30 09:08:08;;;;;;;12.00;5.45;;;;;;;25.35;37.73;100822.31;5075537;28;20099;-60
2022/09/30 09:10:43;;;;;;;10.27;5.63;;;;;;;25.51;37.55;100821.78;5075301;28;20543;-60
2022/09/30 09:13:25;;;;;;;7.50;5.30;;;;;;;25.66;37.47;100822.25;5075481;28;20021;-61
2022/09/30 09:16:00;;;;;;;7.90;5.03;;;;;;;25.81;37.86;100822.72;5073824;28;20114;-61
2022/09/30 09:18:39;;;;;;;9.73;4.85;;;;;;;25.97;37.10;100816.59;5074786;28;20436;-62
2022/09/30 09:21:26;;;;;;;8.02;4.78;;;;;;;26.24;37.03;100817.16;5074753;28;20024;-62
2022/09/30 09:23:55;;;;;;;8.13;4.93;;;;;;;26.65;37.06;100821.84;5074535;28;20099;-59
2022/09/30 09:26:20;;;;;;;8.85;5.10;;;;;;;27.26;36.93;100817.91;5074315;28;20032;-60
2022/09/30 09:29:23;;;;;;;13.60;5.43;;;;;;;28.46;35.03;100816.16;5073310;28;20024;-60
2022/09/30 09:31:48;;;;;;;11.65;5.13;;;;;;;30.99;32.18;100836.16;5074440;28;20496;-60
2022/09/30 09:34:14;;;;;;;11.30;5.45;;;;;;;30.65;32.33;100820.03;5074406;28;20024;-59
2022/09/30 09:36:51;;;;;;;8.68;4.88;;;;;;;30.28;33.24;100829.00;5074342;28;20490;-59
2022/09/30 09:39:29;;;;;;;7.57;5.53;;;;;;;30.21;34.16;100819.25;5074275;28;20025;-60
2022/09/30 09:42:13;;;;;;;9.35;5.22;;;;;;;30.34;33.64;100819.69;5073081;28;20394;-59
2022/09/30 09:44:48;;;;;;;7.85;4.88;;;;;;;30.47;33.30;100813.78;5074006;28;20118;-59
2022/09/30 09:47:15;;;;;;;9.23;4.78;;;;;;;30.57;33.28;100813.88;5072925;28;20037;-60
2022/09/30 09:49:42;;;;;;;7.65;5.15;;;;;;;30.75;33.04;100803.53;5074365;28;20481;-60
2022/09/30 09:52:14;;;;;;;9.93;5.28;;;;;;;31.00;32.54;100817.63;5073998;28;20025;-60
2022/09/30 09:54:44;;;;;;;10.85;4.53;;;;;;;31.26;32.03;100815.91;5073776;28;20477;-60
2022/09/30 09:57:15;;;;;;;8.10;4.95;;;;;;;31.46;31.57;100804.97;5073878;28;20033;-60
2022/09/30 10:01:04;;;;;;;8.00;5.38;;;;;;;31.67;31.29;100802.06;5073969;28;20054;-60
2022/09/30 10:02:57;;;;;;;9.75;5.28;;;;;;;31.97;31.17;100797.75;5073709;28;20070;-60
2022/09/30 10:05:25;;;;;;;9.35;5.13;;;;;;;32.17;30.66;100804.25;5073700;28;20027;-60
2022/09/30 10:08:08;;;;;;;9.02;5.15;;;;;;;32.34;30.20;100805.97;5074062;28;20047;-60
2022/09/30 10:10:42;;;;;;;11.27;5.63;;;;;;;32.44;30.60;100801.28;5073987;28;20385;-59
2022/09/30 10:13:28;;;;;;;11.55;5.15;;;;;;;32.61;30.51;100799.13;5073579;28;20031;-60
2022/09/30 10:15:56;;;;;;;10.20;5.85;;;;;;;32.86;30.59;100797.50;5073644;28;20051;-60
2022/09/30 10:18:31;;;;;;;12.73;5.30;;;;;;;33.12;29.37;100801.94;5072429;28;20034;-59
2022/09/30 10:20:58;;;;;;;10.25;5.70;;;;;;;33.25;30.22;100804.19;5072629;28;20031;-59
2022/09/30 10:23:28;;;;;;;9.63;5.38;;;;;;;33.33;29.42;100803.59;5073482;28;20025;-60
2022/09/30 10:26:15;;;;;;;8.93;5.78;;;;;;;33.39;29.42;100800.53;5073451;28;20037;-60
2022/09/30 10:28:47;;;;;;;12.35;6.38;;;;;;;33.48;29.05;100806.34;5072307;28;20031;-60
2022/09/30 10:31:21;;;;;;;;;;;;;;;33.52;30.60;100801.06;5074146;28;20531;-60
2022/09/30 10:33:56;;;;;;;11.27;6.13;;;;;;;33.74;29.99;100790.47;5073355;28;19998;-60
2022/09/30 10:36:32;;;;;;;10.13;5.15;;;;;;;33.80;29.48;100787.41;5073360;28;20060;-59
2022/09/30 10:39:01;;;;;;;10.57;5.57;;;;;;;33.92;28.87;100790.66;5071342;28;20020;-60
2022/09/30 10:41:29;;;;;;;12.18;6.05;;;;;;;34.02;29.08;100784.25;5073280;28;20082;-59
2022/09/30 10:43:57;;;;;;;11.48;5.80;;;;;;;34.06;28.16;100795.63;5072007;28;20381;-60
2022/09/30 10:46:27;;;;;;;9.45;5.47;;;;;;;34.07;28.24;100786.16;5073254;28;20025;-60
2022/09/30 10:48:53;;;;;;;9.50;5.85;;;;;;;34.05;28.83;100793.94;5072026;28;20074;-60
2022/09/30 10:51:32;;;;;;;9.85;5.65;;;;;;;33.80;28.25;100792.13;5072301;28;20025;-60
2022/09/30 10:53:58;;;;;;;8.35;5.15;;;;;;;33.31;28.39;100794.69;5073116;28;20040;-59
2022/09/30 10:56:42;;;;;;;8.07;5.55;;;;;;;32.76;29.55;100790.81;5072753;28;20083;-60
2022/09/30 10:59:38;;;;;;;7.65;4.20;;;;;;;32.16;29.13;100796.22;5073393;28;20108;-59
2022/09/30 11:02:29;;;;;;;9.73;4.70;;;;;;;32.82;29.42;100788.88;5072669;28;20053;-59
2022/09/30 11:05:02;;;;;;;6.40;4.45;;;;;;;33.15;29.03;100791.13;5073004;28;20024;-60
2022/09/30 11:07:27;;;;;;;6.95;4.72;;;;;;;32.34;29.28;100800.41;5073260;28;20389;-60
2022/09/30 11:10:00;;;;;;;9.07;4.65;;;;;;;32.78;29.08;100796.91;5073276;28;20027;-60
2022/09/30 11:12:43;;;;;;;7.30;4.00;;;;;;;33.02;28.72;100805.53;5073048;28;20029;-60
2022/09/30 11:15:18;;;;;;;6.00;4.00;;;;;;;32.76;28.54;100787.22;5073206;28;20012;-59
2022/09/30 11:17:52;;;;;;;9.40;4.43;;;;;;;32.98;28.14;100796.09;5071994;28;20482;-60
2022/09/30 11:20:19;;;;;;;7.45;4.20;;;;;;;32.91;28.89;100795.56;5071714;28;20051;-60
2022/09/30 11:22:52;;;;;;;7.03;3.58;;;;;;;32.87;28.80;100805.53;5071998;28;20422;-59
2022/09/30 11:25:31;;;;;;;3.85;2.97;;;;;;;32.90;28.07;100806.91;5072639;28;20474;-59
2022/09/30 11:28:32;;;;;;;7.95;3.85;;;;;;;32.22;29.52;100814.53;5071584;28;20028;-59
2022/09/30 11:31:01;;;;;;;7.70;3.55;;;;;;;31.18;29.78;100820.00;4991478;28;20100;-59
2022/09/30 11:33:52;;;;;;;8.50;3.50;;;;;;;31.85;29.10;100805.50;4975263;28;20030;-59
2022/09/30 11:36:33;;;;;;;3.70;2.78;;;;;;;31.81;29.81;100793.25;4991877;28;20040;-60
2022/09/30 11:39:17;;;;;;;8.32;2.70;;;;;;;31.62;29.27;100793.75;4975293;28;20125;-59
2022/09/30 11:41:48;;;;;;;5.15;2.70;;;;;;;31.41;29.90;100789.13;4991413;28;20112;-60
2022/09/30 11:44:31;;;;;;;4.95;2.58;;;;;;;32.00;29.05;100794.44;4975086;28;20033;-59
2022/09/30 11:47:14;;;;;;;5.95;2.95;;;;;;;32.37;28.40;100797.94;4975096;28;20034;-59